Time;durP1;ratioP1;P1;durP2;ratioP2;P2;SDS_P1;SDS_P2;PMS_P1;PMS_P2;Temp;Humidity;BMP_temperature;BMP_pressure;BME280_temperature;BME280_humidity;BME280_pressure;Samples;Min_cycle;Max_cycle;Signal;HPM_P1;HPM_P2
2022/08/17 00:01:19;;;;;;;10.43;9.47;;;;;;;-143.84;46.01;44984.31;5108860;28;20983;-76
2022/08/17 00:03:48;;;;;;;10.53;9.47;;;;;;;-143.84;45.98;44972.91;5109173;28;20478;-76
2022/08/17 00:06:17;;;;;;;12.20;9.60;;;;;;;-143.84;45.78;44940.53;5108628;28;20438;-77
2022/08/17 00:08:48;;;;;;;9.83;8.90;;;;;;;-143.84;45.87;44944.34;5109141;28;20855;-76
2022/08/17 00:11:18;;;;;;;10.47;9.47;;;;;;;-143.84;45.82;44984.31;5111451;28;20463;-76
2022/08/17 00:13:47;;;;;;;10.10;9.10;;;;;;;-143.84;45.26;44976.72;5112893;28;20484;-76
2022/08/17 00:16:17;;;;;;;12.67;9.60;;;;;;;-143.84;45.32;44971.00;5113228;28;20945;-76
2022/08/17 00:18:44;;;;;;;10.33;9.33;;;;;;;-143.84;45.67;44980.53;5112878;28;20888;-76
2022/08/17 00:21:12;;;;;;;10.50;9.40;;;;;;;-143.84;45.20;44982.41;5112781;28;20441;-76
2022/08/17 00:23:41;;;;;;;11.53;8.67;;;;;;;-143.84;45.29;44972.91;5112698;28;20486;-76
2022/08/17 00:26:10;;;;;;;9.60;8.80;;;;;;;-143.84;45.55;44969.09;5112376;28;20540;-76
2022/08/17 00:28:38;;;;;;;10.53;9.60;;;;;;;-143.84;45.71;44953.88;5112518;28;20501;-76
2022/08/17 00:31:06;;;;;;;10.47;9.57;;;;;;;-143.84;45.69;44980.53;5112548;28;20438;-76
2022/08/17 00:33:34;;;;;;;9.40;8.60;;;;;;;-143.84;45.64;44967.19;5112339;28;20431;-75
2022/08/17 00:36:04;;;;;;;10.40;9.50;;;;;;;-143.84;45.41;44999.56;5112494;28;20435;-75
2022/08/17 00:38:32;;;;;;;10.60;9.70;;;;;;;-143.84;45.57;44976.72;5112613;28;20993;-75
2022/08/17 00:41:02;;;;;;;10.30;9.40;;;;;;;-143.84;45.52;44961.47;5112042;28;20439;-75
2022/08/17 00:43:35;;;;;;;9.93;9.10;;;;;;;-143.84;45.69;44969.09;5112255;28;20478;-75
2022/08/17 00:46:04;;;;;;;10.00;9.00;;;;;;;-143.84;45.44;44974.81;5112185;28;20435;-75
2022/08/17 00:48:32;;;;;;;10.13;9.23;;;;;;;-143.84;45.72;44942.44;5112030;28;20438;-75
2022/08/17 00:51:07;;;;;;;9.50;8.60;;;;;;;-143.84;45.34;44980.53;5111914;28;20997;-75
2022/08/17 00:53:37;;;;;;;9.50;8.60;;;;;;;-143.84;45.24;44982.41;5112291;28;20449;-76
2022/08/17 00:56:08;;;;;;;8.90;8.10;;;;;;;-143.84;44.79;44967.19;5112238;28;20906;-76
2022/08/17 00:58:37;;;;;;;9.90;8.80;;;;;;;-143.84;44.81;44986.22;5112203;28;20508;-75
2022/08/17 01:01:06;;;;;;;9.63;7.93;;;;;;;-143.84;44.55;44955.75;5112182;28;20964;-76
2022/08/17 01:03:36;;;;;;;9.87;8.57;;;;;;;-143.84;44.61;44951.97;5111956;28;20477;-76
2022/08/17 01:06:05;;;;;;;8.50;7.73;;;;;;;-143.84;44.44;44974.81;5112098;28;20752;-76
2022/08/17 01:08:33;;;;;;;8.23;7.47;;;;;;;-143.84;43.70;44980.53;5111734;28;20435;-76
2022/08/17 01:11:02;;;;;;;8.70;8.00;;;;;;;-143.84;43.57;44980.53;5111780;28;20567;-76
2022/08/17 01:13:33;;;;;;;14.37;8.87;;;;;;;-143.84;43.46;44971.00;5111654;28;20427;-76
2022/08/17 01:16:05;;;;;;;14.53;8.20;;;;;;;-143.84;43.45;44972.91;5111668;28;20916;-76
2022/08/17 01:18:34;;;;;;;8.90;7.93;;;;;;;-143.84;43.56;44972.91;5111624;28;20443;-76
2022/08/17 01:21:18;;;;;;;9.60;8.70;;;;;;;-143.84;43.57;44972.91;5111400;28;20446;-76
2022/08/17 01:23:46;;;;;;;8.60;7.83;;;;;;;-143.84;43.84;44978.63;5111018;28;20482;-76
2022/08/17 01:26:13;;;;;;;12.17;8.80;;;;;;;-143.84;44.03;45026.22;5111636;28;20486;-76
2022/08/17 01:28:41;;;;;;;9.30;8.57;;;;;;;-143.84;44.13;44991.94;5111926;28;20443;-76
2022/08/17 01:31:09;;;;;;;12.20;8.97;;;;;;;-143.84;44.68;44955.75;5111556;28;20443;-76
2022/08/17 01:33:37;;;;;;;9.77;8.87;;;;;;;-143.84;44.96;44982.41;5111252;28;20439;-76
2022/08/17 01:36:06;;;;;;;8.60;7.63;;;;;;;-143.84;44.42;44953.88;5111301;28;20472;-76
2022/08/17 01:38:34;;;;;;;8.70;7.87;;;;;;;-143.84;44.27;44984.31;5111141;28;20438;-76
2022/08/17 01:41:10;;;;;;;8.40;7.63;;;;;;;-143.84;44.67;44974.81;5111222;28;20431;-76
2022/08/17 01:43:42;;;;;;;8.27;7.57;;;;;;;-143.84;44.63;44980.53;5111127;28;20944;-76
2022/08/17 01:46:09;;;;;;;8.70;7.90;;;;;;;-143.84;43.79;44965.28;5111251;28;20443;-76
2022/08/17 01:48:38;;;;;;;9.07;8.27;;;;;;;-143.84;44.11;44988.13;5111221;28;20902;-76
2022/08/17 01:51:07;;;;;;;10.20;7.43;;;;;;;-143.84;43.28;44976.72;5111043;28;20483;-76
2022/08/17 01:53:44;;;;;;;7.27;6.67;;;;;;;-143.84;43.31;44974.81;5110933;28;20486;-76
2022/08/17 01:56:15;;;;;;;10.00;7.30;;;;;;;-143.84;43.31;44969.09;5110897;28;20913;-76
2022/08/17 01:58:44;;;;;;;9.30;7.17;;;;;;;-143.84;43.99;44988.13;5110709;28;20439;-76
2022/08/17 02:01:13;;;;;;;8.27;7.50;;;;;;;-143.84;44.17;44984.31;5110640;28;20439;-76
2022/08/17 02:03:41;;;;;;;8.83;7.60;;;;;;;-143.84;43.98;44984.31;5110812;28;21081;-76
2022/08/17 02:06:08;;;;;;;10.00;8.73;;;;;;;-143.84;43.91;44999.56;5110689;28;20443;-76
2022/08/17 02:08:36;;;;;;;7.97;7.37;;;;;;;-143.84;43.64;44997.66;5110657;28;20439;-76
2022/08/17 02:11:06;;;;;;;10.60;7.07;;;;;;;-143.84;43.56;44991.94;5110474;28;20492;-76
2022/08/17 02:13:36;;;;;;;7.40;6.80;;;;;;;-143.84;43.65;44991.94;5110539;28;20503;-76
2022/08/17 02:16:04;;;;;;;6.93;5.90;;;;;;;-143.84;43.08;44999.56;5110555;28;20815;-76
2022/08/17 02:18:31;;;;;;;6.67;6.10;;;;;;;-143.84;43.13;44967.19;5110492;28;20924;-76
2022/08/17 02:20:58;;;;;;;11.97;7.30;;;;;;;-143.84;43.31;44984.31;5110205;28;20439;-76
2022/08/17 02:23:28;;;;;;;7.70;6.90;;;;;;;-143.84;43.07;44991.94;5119751;27;20546;-76
2022/08/17 02:25:59;;;;;;;8.20;6.93;;;;;;;-143.84;42.85;44984.31;5130402;27;20473;-76
2022/08/17 02:28:27;;;;;;;7.47;6.87;;;;;;;-143.84;42.91;45007.19;5130733;27;20935;-76
2022/08/17 02:30:56;;;;;;;11.70;7.30;;;;;;;-143.84;43.19;44986.22;5130814;27;20520;-76
2022/08/17 02:33:23;;;;;;;12.77;6.30;;;;;;;-143.84;42.58;44986.22;5130346;27;20434;-76
2022/08/17 02:35:51;;;;;;;6.33;5.73;;;;;;;-143.84;42.65;44991.94;5131019;27;20483;-76
2022/08/17 02:38:18;;;;;;;9.10;6.67;;;;;;;-143.84;42.62;44974.81;5130600;27;20468;-76
2022/08/17 02:40:46;;;;;;;28.03;7.33;;;;;;;-143.84;42.91;44999.56;5130461;27;21004;-76
2022/08/17 02:43:13;;;;;;;9.80;6.10;;;;;;;-143.84;43.28;44984.31;5130687;27;20478;-76
2022/08/17 02:45:40;;;;;;;7.47;6.87;;;;;;;-143.84;43.02;44978.63;5130608;27;20539;-76
2022/08/17 02:48:09;;;;;;;8.63;6.37;;;;;;;-143.84;43.57;44997.66;5130724;27;20442;-76
2022/08/17 02:50:38;;;;;;;7.17;6.47;;;;;;;-143.84;43.56;44995.75;5130415;27;20510;-76
2022/08/17 02:53:05;;;;;;;7.97;7.23;;;;;;;-143.84;43.45;44990.03;5130409;27;20442;-76
2022/08/17 02:55:37;;;;;;;9.13;6.50;;;;;;;-143.84;43.51;44997.66;5130084;27;20458;-76
2022/08/17 02:58:05;;;;;;;7.17;6.47;;;;;;;-143.84;43.45;44995.75;5130195;27;20449;-76
2022/08/17 03:00:34;;;;;;;7.97;6.60;;;;;;;-143.84;43.50;44972.91;5130037;27;20437;-76
2022/08/17 03:03:04;;;;;;;7.13;6.53;;;;;;;-143.84;43.47;45007.19;5130251;27;20498;-76
2022/08/17 03:05:34;;;;;;;7.70;6.97;;;;;;;-143.84;43.64;44984.31;5130137;27;20438;-76
2022/08/17 03:08:02;;;;;;;6.70;6.10;;;;;;;-143.84;43.60;44993.84;5129634;27;20464;-76
2022/08/17 03:10:29;;;;;;;10.13;6.50;;;;;;;-143.84;43.85;44978.63;5129269;27;20799;-76
2022/08/17 03:12:58;;;;;;;7.03;6.33;;;;;;;-143.84;43.83;44974.81;5129452;27;20537;-76
2022/08/17 03:15:27;;;;;;;12.40;6.77;;;;;;;-143.84;44.11;44980.53;5129697;27;20437;-76
2022/08/17 03:17:56;;;;;;;8.20;6.80;;;;;;;-143.84;44.07;44990.03;5129217;27;20434;-76
2022/08/17 03:20:24;;;;;;;17.67;7.23;;;;;;;-143.84;44.11;44988.13;5129695;27;20943;-76
2022/08/17 03:22:56;;;;;;;7.40;6.60;;;;;;;-143.84;44.37;44980.53;5129975;27;20961;-76
2022/08/17 03:25:26;;;;;;;7.20;6.60;;;;;;;-143.84;44.30;44991.94;5129671;27;20486;-76
2022/08/17 03:27:54;;;;;;;7.33;6.63;;;;;;;-143.84;44.24;44974.81;5129935;27;20856;-75
2022/08/17 03:30:22;;;;;;;7.07;6.47;;;;;;;-143.84;43.98;45001.47;5129725;27;20437;-77
2022/08/17 03:32:52;;;;;;;7.93;7.27;;;;;;;-143.84;44.16;44969.09;5130134;27;20453;-76
2022/08/17 03:35:22;;;;;;;7.80;7.00;;;;;;;-143.84;44.08;44978.63;5129451;27;20427;-76
2022/08/17 03:37:49;;;;;;;11.50;7.27;;;;;;;-143.84;44.21;44986.22;5130146;27;20439;-76
2022/08/17 03:40:19;;;;;;;7.47;6.70;;;;;;;-143.84;44.18;45001.47;5130160;28;20565;-76
2022/08/17 03:42:46;;;;;;;8.07;7.37;;;;;;;-143.84;44.55;45012.88;5129562;28;20532;-76
2022/08/17 03:56:40;;;;;;;8.00;7.20;;;;;;;-143.84;44.49;44988.13;5130264;27;20469;-76
2022/08/17 03:56:42;;;;;;;10.07;6.80;;;;;;;-143.84;44.41;44997.66;5133983;27;20475;-76
2022/08/17 03:59:10;;;;;;;6.30;5.80;;;;;;;-143.84;44.50;44961.47;5133728;27;20982;-76
2022/08/17 04:01:38;;;;;;;7.43;6.70;;;;;;;-143.84;44.56;45001.47;5133973;27;20599;-76
2022/08/17 04:04:06;;;;;;;7.57;6.87;;;;;;;-143.84;44.26;44961.47;5133579;27;20481;-76
2022/08/17 04:06:34;;;;;;;7.47;6.77;;;;;;;-143.84;43.82;44978.63;5133347;27;20434;-76
2022/08/17 04:09:01;;;;;;;7.60;7.00;;;;;;;-143.84;43.91;45005.28;5133706;27;20437;-76
2022/08/17 04:11:28;;;;;;;10.83;6.37;;;;;;;-143.84;43.79;44957.66;5133376;27;20446;-76
2022/08/17 04:13:57;;;;;;;7.50;6.70;;;;;;;-143.84;43.26;44990.03;5133501;27;20436;-76
2022/08/17 04:16:24;;;;;;;6.87;6.17;;;;;;;-143.84;43.16;44971.00;5133662;27;20438;-76
2022/08/17 04:18:52;;;;;;;7.40;6.70;;;;;;;-143.84;42.73;44978.63;5133382;27;20442;-76
2022/08/17 04:21:20;;;;;;;6.63;6.13;;;;;;;-143.84;42.81;44957.66;5119761;27;20439;-76
2022/08/17 04:23:47;;;;;;;6.90;6.30;;;;;;;-143.84;42.54;44971.00;5113128;28;20535;-76
2022/08/17 04:26:15;;;;;;;8.57;5.97;;;;;;;-143.84;42.57;44971.00;5112572;28;20496;-76
2022/08/17 04:28:43;;;;;;;6.93;6.33;;;;;;;-143.84;42.11;44961.47;5112687;28;20474;-76
2022/08/17 04:31:14;;;;;;;7.20;5.90;;;;;;;-143.84;42.27;44957.66;5112559;28;20443;-76
2022/08/17 04:33:42;;;;;;;8.67;7.17;;;;;;;-143.84;42.54;44986.22;5112553;28;20450;-76
2022/08/17 04:36:12;;;;;;;6.50;5.90;;;;;;;-143.84;42.39;44988.13;5112280;28;20437;-76
2022/08/17 04:38:43;;;;;;;7.73;7.07;;;;;;;-143.84;42.82;44969.09;5112611;28;20438;-76
2022/08/17 04:43:57;;;;;;;7.40;6.33;;;;;;;-143.84;42.48;44972.91;5112592;28;20509;-76
2022/08/17 04:46:28;;;;;;;7.13;6.53;;;;;;;-143.84;42.43;44969.09;5112553;28;20442;-76
2022/08/17 04:48:57;;;;;;;7.03;6.33;;;;;;;-143.84;42.61;44972.91;5112674;28;20447;-76
2022/08/17 04:51:26;;;;;;;7.97;6.50;;;;;;;-143.84;42.28;44953.88;5112091;28;20437;-76
2022/08/17 04:53:56;;;;;;;8.33;6.33;;;;;;;-143.84;42.55;44961.47;5112004;28;20521;-76
2022/08/17 04:56:25;;;;;;;10.50;6.23;;;;;;;-143.84;42.71;44986.22;5111649;28;20439;-76
2022/08/17 04:58:56;;;;;;;6.73;6.13;;;;;;;-143.84;42.63;44965.28;5111893;28;20969;-75
2022/08/17 05:01:26;;;;;;;11.70;6.43;;;;;;;-143.84;42.03;44982.41;5112128;28;20511;-75
2022/08/17 05:03:55;;;;;;;7.40;6.77;;;;;;;-143.84;42.27;44965.28;5112113;28;20548;-75
2022/08/17 05:06:23;;;;;;;8.63;7.17;;;;;;;-143.84;42.37;44971.00;5112014;28;20438;-75
2022/08/17 05:08:50;;;;;;;12.90;6.37;;;;;;;-143.84;42.17;44969.09;5112054;28;20435;-75
2022/08/17 05:11:18;;;;;;;6.80;6.20;;;;;;;-143.84;42.30;44980.53;5112033;28;20439;-75
2022/08/17 05:13:46;;;;;;;7.37;6.63;;;;;;;-143.84;42.61;44991.94;5111800;28;20447;-76
2022/08/17 05:16:13;;;;;;;6.70;6.10;;;;;;;-143.84;41.88;44929.09;5111802;28;20965;-76
2022/08/17 05:18:42;;;;;;;6.93;5.57;;;;;;;-143.84;41.49;44946.25;5111804;28;20443;-76
2022/08/17 05:21:10;;;;;;;14.73;6.43;;;;;;;-143.84;40.86;44957.66;5111883;28;20436;-76
2022/08/17 05:23:38;;;;;;;6.73;5.97;;;;;;;-143.84;40.76;44955.75;5111430;28;20439;-76
2022/08/17 05:26:05;;;;;;;6.90;6.23;;;;;;;-143.84;39.89;44948.16;5111240;28;20491;-76
2022/08/17 05:28:33;;;;;;;6.97;6.37;;;;;;;-143.84;39.72;44955.75;5111822;28;20436;-76
2022/08/17 05:31:02;;;;;;;6.73;6.13;;;;;;;-143.84;38.91;44951.97;5111611;28;20450;-76
2022/08/17 05:33:32;;;;;;;6.73;6.17;;;;;;;-143.84;38.57;44923.41;5111355;28;20937;-76
2022/08/17 05:36:01;;;;;;;7.40;5.73;;;;;;;-143.84;38.57;44934.81;5111792;28;20507;-76
2022/08/17 05:38:30;;;;;;;11.77;5.80;;;;;;;-143.84;38.30;44910.06;5111542;28;20439;-76
2022/08/17 05:40:58;;;;;;;6.90;6.40;;;;;;;-143.84;38.19;44925.31;5111180;28;20447;-76
2022/08/17 05:43:27;;;;;;;6.70;5.70;;;;;;;-143.84;37.90;44925.31;5111247;28;20446;-76
2022/08/17 05:46:02;;;;;;;7.37;6.10;;;;;;;-143.84;37.61;44921.50;5110963;28;20532;-76
2022/08/17 05:48:34;;;;;;;6.73;6.13;;;;;;;-143.84;37.52;44891.03;5111334;28;20521;-76
2022/08/17 05:51:15;;;;;;;8.73;5.73;;;;;;;-143.84;37.90;44906.25;5110780;28;20439;-76
2022/08/17 05:53:51;;;;;;;6.70;6.10;;;;;;;-143.84;38.09;44919.59;5111179;28;20464;-77
2022/08/17 05:56:28;;;;;;;7.07;5.83;;;;;;;-143.84;37.27;44908.16;5111082;28;20430;-76
2022/08/17 05:59:03;;;;;;;8.13;5.53;;;;;;;-143.84;37.27;44898.66;5110780;28;20442;-76
2022/08/17 06:01:41;;;;;;;6.17;5.57;;;;;;;-143.84;37.43;44927.19;5111027;28;20442;-76
2022/08/17 06:04:20;;;;;;;9.70;6.70;;;;;;;-143.84;37.33;44868.19;5110969;28;20431;-76
2022/08/17 06:06:55;;;;;;;6.50;6.00;;;;;;;-143.84;37.62;44921.50;5110717;28;20439;-76
2022/08/17 06:09:35;;;;;;;9.70;5.97;;;;;;;-143.84;37.64;44929.09;5110539;28;20513;-76
2022/08/17 06:12:20;;;;;;;7.57;6.87;;;;;;;-143.84;37.90;44896.75;5110862;28;20430;-76
2022/08/17 06:15:12;;;;;;;7.70;6.53;;;;;;;-143.84;37.57;44913.88;5110688;28;20450;-76
2022/08/17 06:17:40;;;;;;;6.60;6.00;;;;;;;-143.84;37.61;44902.44;5092290;28;20443;-76
2022/08/17 06:20:12;;;;;;;6.30;5.90;;;;;;;-143.84;37.96;44896.75;5110398;28;20917;-76
2022/08/17 06:22:45;;;;;;;6.67;6.17;;;;;;;-143.84;37.20;44891.03;5110384;28;20492;-76
2022/08/17 06:25:16;;;;;;;6.27;5.73;;;;;;;-143.84;36.80;44875.78;5110325;28;20547;-76
2022/08/17 06:27:49;;;;;;;6.77;6.17;;;;;;;-143.84;36.84;44879.59;5110269;28;20439;-77
2022/08/17 06:30:20;;;;;;;6.40;5.70;;;;;;;-143.84;36.45;44892.94;5110413;28;20840;-76
2022/08/17 06:32:50;;;;;;;6.77;6.07;;;;;;;-143.84;36.95;44887.22;5110395;28;20447;-76
2022/08/17 06:35:24;;;;;;;9.30;5.57;;;;;;;-143.84;36.75;44873.88;5110511;28;21146;-76
2022/08/17 06:38:03;;;;;;;6.70;5.77;;;;;;;-143.84;36.53;44870.09;5110092;28;20442;-76
2022/08/17 06:40:54;;;;;;;10.13;6.80;;;;;;;-143.84;35.90;44875.78;5110198;28;20450;-77
2022/08/17 06:43:38;;;;;;;6.30;5.70;;;;;;;-143.84;35.62;44871.97;5107939;28;20799;-76
2022/08/17 06:46:10;;;;;;;6.67;6.07;;;;;;;-143.84;35.42;44871.97;5109982;28;20486;-76
2022/08/17 06:48:46;;;;;;;8.10;5.53;;;;;;;-143.84;34.34;44832.00;5109797;28;20444;-76
2022/08/17 06:51:22;;;;;;;7.00;5.77;;;;;;;-143.84;34.27;44841.53;5109817;28;20437;-76
2022/08/17 06:53:58;;;;;;;9.73;5.77;;;;;;;-143.84;34.31;44866.28;5110138;28;20431;-76
2022/08/17 06:56:33;;;;;;;6.20;5.27;;;;;;;-143.84;34.33;44839.63;5109822;28;20478;-76
2022/08/17 06:59:01;;;;;;;5.73;5.27;;;;;;;-143.84;33.60;44818.66;5109644;28;20442;-77
2022/08/17 07:01:33;;;;;;;10.60;6.37;;;;;;;-143.84;33.17;44811.06;5110166;28;20957;-76
2022/08/17 07:04:09;;;;;;;6.50;5.90;;;;;;;-143.84;32.99;44847.22;5109960;28;20430;-76
2022/08/17 07:06:42;;;;;;;5.30;4.83;;;;;;;-143.84;33.36;44833.91;5109725;28;20893;-76
2022/08/17 07:09:16;;;;;;;5.97;5.27;;;;;;;-143.84;33.30;44822.47;5109521;28;20492;-76
2022/08/17 07:11:51;;;;;;;5.47;5.03;;;;;;;-143.84;33.49;44801.53;5109462;28;20493;-77
2022/08/17 07:14:32;;;;;;;10.87;5.27;;;;;;;-143.84;32.89;44814.88;5109559;28;20467;-77
2022/08/17 07:17:02;;;;;;;6.30;5.80;;;;;;;-143.84;32.17;44805.34;5109555;28;20435;-76
2022/08/17 07:19:33;;;;;;;6.97;5.13;;;;;;;-143.84;32.69;44847.22;5109648;28;20871;-76
2022/08/17 07:22:09;;;;;;;6.43;4.70;;;;;;;-143.84;33.30;44822.47;5109241;28;20446;-76
2022/08/17 07:24:46;;;;;;;5.90;5.43;;;;;;;-143.84;32.54;44828.19;5109383;28;20497;-76
2022/08/17 07:27:17;;;;;;;5.90;4.60;;;;;;;-143.84;32.53;44803.44;5109407;28;20435;-76
2022/08/17 07:29:49;;;;;;;5.10;4.70;;;;;;;-143.84;32.68;44816.78;5109415;28;20435;-76
2022/08/17 07:32:20;;;;;;;7.07;5.90;;;;;;;-143.84;33.15;44805.34;5109184;28;20960;-76
2022/08/17 07:35:14;;;;;;;5.90;5.40;;;;;;;-143.84;33.23;44809.16;5109194;28;20435;-76
2022/08/17 07:37:44;;;;;;;5.63;4.80;;;;;;;-143.84;33.13;44805.34;5108472;28;20438;-76
2022/08/17 07:40:28;;;;;;;5.43;4.93;;;;;;;-143.84;33.56;44843.44;5108257;28;20443;-76
2022/08/17 07:43:24;;;;;;;5.47;4.97;;;;;;;-143.84;33.13;44839.63;5108804;28;21116;-76
2022/08/17 07:48:53;;;;;;;8.70;5.07;;;;;;;-143.84;32.68;44837.72;5108765;28;20442;-76
2022/08/17 07:51:27;;;;;;;5.90;4.73;;;;;;;-143.84;33.46;44803.44;5109041;28;20443;-76
2022/08/17 07:53:57;;;;;;;8.50;4.70;;;;;;;-143.84;33.27;44841.53;5109063;28;20443;-76
2022/08/17 07:56:39;;;;;;;8.73;4.93;;;;;;;-143.84;33.30;44807.25;5108996;28;20442;-76
2022/08/17 07:59:09;;;;;;;12.93;5.27;;;;;;;-143.84;33.12;44830.09;5109215;28;21122;-76
2022/08/17 08:01:36;;;;;;;11.53;4.63;;;;;;;-143.84;34.02;44841.53;5108941;28;20435;-76
2022/08/17 08:04:21;;;;;;;5.10;4.70;;;;;;;-143.84;34.64;44822.47;5109106;28;20435;-76
2022/08/17 08:06:53;;;;;;;7.07;6.30;;;;;;;-143.84;33.51;44830.09;5108955;28;20552;-77
2022/08/17 08:09:33;;;;;;;6.33;5.73;;;;;;;-143.84;34.33;44847.22;5108973;28;20530;-76
2022/08/17 08:12:22;;;;;;;5.57;5.10;;;;;;;-143.84;34.01;44851.03;5108843;28;20469;-76
2022/08/17 08:14:55;;;;;;;17.90;8.77;;;;;;;-143.84;35.26;44847.22;5108786;28;20975;-77
2022/08/17 08:17:28;;;;;;;24.43;8.80;;;;;;;-143.84;35.89;44849.13;5109049;28;20567;-76
2022/08/17 08:19:57;;;;;;;18.50;9.03;;;;;;;-143.84;36.43;44845.31;5109131;28;20435;-76
2022/08/17 08:22:32;;;;;;;19.27;8.50;;;;;;;-143.84;37.30;44833.91;5108796;28;20867;-76
2022/08/17 08:25:11;;;;;;;9.00;5.90;;;;;;;-143.84;34.88;44816.78;5108652;28;20971;-76
2022/08/17 08:27:48;;;;;;;8.97;7.23;;;;;;;-143.84;35.41;44828.19;5109162;28;20473;-77
2022/08/17 08:30:20;;;;;;;13.90;8.27;;;;;;;-143.84;35.71;44845.31;5108728;28;20446;-77
2022/08/17 08:33:04;;;;;;;18.80;7.90;;;;;;;-143.84;36.92;44820.56;5111753;28;20437;-77
2022/08/17 08:35:37;;;;;;;5.17;4.73;;;;;;;-143.84;33.45;44830.09;5112520;28;20508;-76
2022/08/17 08:38:16;;;;;;;11.27;6.37;;;;;;;-143.84;35.13;44805.34;5112554;28;20435;-77
2022/08/17 08:40:56;;;;;;;7.87;5.30;;;;;;;-143.84;33.91;44805.34;5112497;28;20447;-77
2022/08/17 08:43:33;;;;;;;8.00;5.13;;;;;;;-143.84;33.38;44797.72;5112727;28;20442;-76
2022/08/17 08:46:11;;;;;;;8.00;5.10;;;;;;;-143.84;31.73;44807.25;5112474;28;20484;-77
2022/08/17 08:49:01;;;;;;;6.73;5.27;;;;;;;-143.84;32.06;44769.16;5112304;28;20796;-77
2022/08/17 08:51:40;;;;;;;6.57;4.97;;;;;;;-143.84;32.84;44769.16;5097132;28;20457;-77
2022/08/17 08:54:16;;;;;;;5.40;5.00;;;;;;;-143.84;31.92;44765.34;5112014;28;20507;-77
2022/08/17 08:56:49;;;;;;;5.40;5.10;;;;;;;-143.84;32.54;44765.34;5112252;28;20446;-77
2022/08/17 08:59:24;;;;;;;5.50;5.00;;;;;;;-143.84;32.06;44755.84;5112443;28;20443;-77
2022/08/17 09:02:03;;;;;;;12.50;5.40;;;;;;;-143.84;31.83;44740.59;5112025;28;20521;-77
2022/08/17 09:04:53;;;;;;;6.27;5.20;;;;;;;-143.84;31.49;44727.28;5112196;28;20461;-77
2022/08/17 09:07:33;;;;;;;7.40;5.30;;;;;;;-143.84;31.52;44729.19;5111825;28;20499;-77
2022/08/17 09:10:09;;;;;;;5.77;5.30;;;;;;;-143.84;31.53;44727.28;5111977;28;20466;-77
2022/08/17 09:12:46;;;;;;;5.30;4.90;;;;;;;-143.84;30.75;44702.53;5112353;28;20513;-77
2022/08/17 09:15:20;;;;;;;7.53;5.20;;;;;;;-143.84;30.84;44704.44;5112089;28;20507;-77
2022/08/17 09:17:55;;;;;;;5.80;5.30;;;;;;;-143.84;30.42;44713.94;5111907;28;20439;-77
2022/08/17 09:20:27;;;;;;;6.73;5.60;;;;;;;-143.84;30.25;44725.38;5111637;28;20430;-77
2022/08/17 09:22:58;;;;;;;9.50;5.57;;;;;;;-143.84;30.52;44653.03;5112023;28;20964;-77
2022/08/17 09:25:29;;;;;;;6.00;5.33;;;;;;;-143.84;29.31;44651.13;5111384;28;20486;-77
2022/08/17 09:27:59;;;;;;;10.27;6.37;;;;;;;-143.84;29.06;44660.63;5111401;28;21156;-77
2022/08/17 09:30:35;;;;;;;7.10;4.87;;;;;;;-143.84;28.91;44653.03;5111441;28;20439;-77
2022/08/17 09:33:06;;;;;;;7.73;5.60;;;;;;;-143.84;29.69;44651.13;5111704;28;20466;-77
2022/08/17 09:35:41;;;;;;;7.17;5.83;;;;;;;-143.84;29.44;44670.16;5111521;28;20447;-77
2022/08/17 09:38:19;;;;;;;5.90;5.30;;;;;;;-143.84;28.54;44660.63;5111471;28;20451;-77
2022/08/17 09:40:52;;;;;;;4.77;4.37;;;;;;;-143.84;27.79;44622.56;5111463;28;21203;-77
2022/08/17 09:43:29;;;;;;;5.57;5.10;;;;;;;-143.84;27.05;44651.13;5110385;28;20455;-77
2022/08/17 09:46:01;;;;;;;5.07;4.67;;;;;;;-143.84;28.40;44666.34;5110966;28;21098;-77
2022/08/17 09:48:33;;;;;;;6.77;5.97;;;;;;;-143.84;29.64;44641.59;5111699;28;20501;-77
2022/08/17 09:51:05;;;;;;;10.27;6.60;;;;;;;-143.84;30.72;44649.22;5111412;28;20431;-77
2022/08/17 09:53:33;;;;;;;10.63;6.97;;;;;;;-143.84;31.73;44639.69;5111158;28;20948;-77
2022/08/17 09:56:11;;;;;;;13.93;7.60;;;;;;;-143.84;32.19;44672.06;5110766;28;20450;-77
2022/08/17 09:58:49;;;;;;;11.50;8.50;;;;;;;-143.84;31.41;44685.38;5111102;28;20503;-77
2022/08/17 10:01:28;;;;;;;57.17;31.87;;;;;;;-143.84;32.41;44729.19;5110839;28;20443;-76
2022/08/17 10:04:10;;;;;;;8.17;7.40;;;;;;;-143.84;34.58;44769.16;5110864;28;20442;-77
2022/08/17 10:06:51;;;;;;;45.40;24.10;;;;;;;-143.84;37.18;44776.78;5111065;28;20502;-77
2022/08/17 10:09:29;;;;;;;19.13;11.23;;;;;;;-143.84;37.44;44818.66;5110907;28;20462;-77
2022/08/17 10:12:19;;;;;;;31.27;20.00;;;;;;;-143.84;38.43;44818.66;5110617;28;20442;-75
2022/08/17 10:15:00;;;;;;;16.07;12.10;;;;;;;-143.84;38.07;44805.34;5110267;28;20526;-75
2022/08/17 10:17:46;;;;;;;14.53;9.37;;;;;;;-143.84;38.38;44809.16;5110365;28;20496;-75
2022/08/17 10:20:19;;;;;;;20.27;12.97;;;;;;;-143.84;38.55;44801.53;5110414;28;20458;-74
2022/08/17 10:28:42;;;;;;;10.10;8.80;;;;;;;-143.84;37.24;44828.19;5047038;28;21253;-75
2022/08/17 10:31:12;;;;;;;24.20;15.67;;;;;;;-143.84;38.29;44843.44;5098287;28;20828;-75
2022/08/17 10:33:52;;;;;;;12.10;8.00;;;;;;;-143.84;40.26;44824.38;5110115;28;20442;-74
2022/08/17 10:36:27;;;;;;;8.90;8.00;;;;;;;-143.84;41.71;44809.16;5110521;28;20450;-74
2022/08/17 10:39:07;;;;;;;9.77;8.83;;;;;;;-143.84;42.93;44816.78;5110338;28;20960;-74
2022/08/17 10:41:41;;;;;;;8.37;7.70;;;;;;;-143.84;42.05;44841.53;5109960;28;20475;-75
2022/08/17 10:44:12;;;;;;;9.07;8.17;;;;;;;-143.84;40.89;44833.91;5110172;28;20439;-75
2022/08/17 10:47:01;;;;;;;8.60;7.80;;;;;;;-143.84;41.73;44858.66;5109793;28;20489;-74
2022/08/17 10:49:33;;;;;;;10.73;8.27;;;;;;;-143.84;41.65;44852.94;5109912;28;20784;-75
2022/08/17 10:52:02;;;;;;;9.30;8.57;;;;;;;-143.84;43.39;44858.66;5109872;28;20474;-74
2022/08/17 10:54:39;;;;;;;18.73;8.80;;;;;;;-143.84;41.79;44849.13;5109493;28;20912;-75
2022/08/17 10:57:38;;;;;;;8.67;7.77;;;;;;;-143.84;43.15;44870.09;5109863;28;20442;-74
2022/08/17 11:00:13;;;;;;;10.70;8.83;;;;;;;-143.84;44.14;44849.13;5109943;28;20451;-74
2022/08/17 11:02:48;;;;;;;9.07;8.33;;;;;;;-143.84;43.10;44862.47;5109826;28;20447;-74
2022/08/17 11:05:59;;;;;;;10.60;8.43;;;;;;;-143.84;41.89;44845.31;5109853;28;20446;-74
2022/08/17 11:09:10;;;;;;;10.37;9.37;;;;;;;-143.84;45.54;44875.78;5072520;28;20458;-75
2022/08/17 11:11:49;;;;;;;12.43;8.70;;;;;;;-143.84;44.44;44835.81;5093689;28;20447;-74
2022/08/17 11:14:50;;;;;;;12.93;7.90;;;;;;;-143.84;43.08;44841.53;5109562;28;20446;-74
2022/08/17 11:17:52;;;;;;;13.53;8.20;;;;;;;-143.84;43.87;44866.28;5091000;28;20465;-74
2022/08/17 11:20:47;;;;;;;8.17;7.47;;;;;;;-143.84;44.55;44837.72;5109526;28;20443;-75
2022/08/17 11:23:45;;;;;;;11.93;7.90;;;;;;;-143.84;39.66;44847.22;5109403;28;20452;-74
2022/08/17 11:26:25;;;;;;;9.93;8.30;;;;;;;-143.84;39.24;44830.09;5108911;28;20478;-74
2022/08/17 11:28:58;;;;;;;10.30;8.33;;;;;;;-143.84;40.94;44839.63;5109475;28;20435;-74
2022/08/17 11:31:35;;;;;;;10.70;9.00;;;;;;;-143.84;40.16;44847.22;5109243;28;20448;-75
2022/08/17 11:34:06;;;;;;;12.03;7.93;;;;;;;-143.84;41.81;44832.00;5109340;28;20811;-75
2022/08/17 11:37:03;;;;;;;18.57;9.13;;;;;;;-143.84;42.71;44839.63;5109409;28;20443;-74
2022/08/17 11:39:52;;;;;;;10.90;8.00;;;;;;;-143.84;42.51;44847.22;5109278;28;20890;-74
2022/08/17 11:42:33;;;;;;;9.13;7.73;;;;;;;-143.84;41.81;44851.03;5106324;28;20447;-75
2022/08/17 11:45:19;;;;;;;9.50;8.57;;;;;;;-143.84;41.51;44862.47;5109547;28;20419;-74
2022/08/17 11:54:07;;;;;;;10.27;8.60;;;;;;;-143.84;44.36;44847.22;5109813;28;20430;-72
2022/08/17 11:56:39;;;;;;;12.00;9.47;;;;;;;-143.84;45.60;44811.06;5110447;28;20435;-72
2022/08/17 11:59:40;;;;;;;13.93;10.17;;;;;;;-143.84;46.75;44860.56;5110112;28;20947;-72
2022/08/17 12:02:44;;;;;;;10.73;9.63;;;;;;;-143.84;47.29;44864.38;5109886;28;20435;-72
2022/08/17 12:05:33;;;;;;;14.43;9.20;;;;;;;-143.84;46.75;44837.72;5108252;28;20442;-72
2022/08/17 12:08:13;;;;;;;10.50;9.33;;;;;;;-143.84;46.86;44845.31;5113978;28;20471;-72
2022/08/17 12:10:56;;;;;;;9.47;8.37;;;;;;;-143.84;46.55;44870.09;5114311;28;20983;-72